Americus, GA

7:55 AM EDT on July 28, 2014 (GMT -0400)
Southwest Georgia Regional (KABY) Elev 194 ft | 31.54 °N, 84.19 °W | Change Station

Current weather conditions updated 29 minutes ago

Partly Cloudy
Partly Cloudy
77 °F
Feels Like 77 °F
N
5
Wind Variable Wind from WSW

Today is forecast to be nearly the same temperature as yesterday. Showers and thunderstorms late.

Today
High -- | Low -- °F
--% Chance of Precip.
Yesterday
High -- | Low -- °F
Precip. -- in
6:49 AM 8:36 PM
New Moon, 2% visible
Pressure 30.01 in
Visibility 5.0 miles
Clouds Few 700 ft
Dew Point 75 °F
Humidity 94%
Rainfall 0.00 in
Snow Depth Not available.
UV 0 out of 12
Pollen 6.00 out of 12
Air Quality Not available.
Flu Activity Not available.
SPECI KABY 281126Z 25004KT 5SM BR FEW007 25/24 A3001 RMK AO2

More Conditions Fewer Conditions

Pressure 30.01 in
Visibility 5.0 miles
Clouds Few 700 ft
Dew Point 75 °F
Humidity 94%
Rainfall 0.00 in
Snow Depth Not available.
UV 0 out of 12
Pollen 6.00 out of 12
Air Quality Not available.
Flu Activity Not available.
SPECI KABY 281126Z 25004KT 5SM BR FEW007 25/24 A3001 RMK AO2

More Conditions Fewer Conditions

10-Day Weather Forecast

Almanac

Astronomy

Jul. 28, 2014 Rise Set
Actual Time 6:49 AM EDT 8:36 PM EDT
Civil Twilight 6:22 AM EDT 9:03 PM EDT
Nautical Twilight 5:50 AM EDT 9:36 PM EDT
Astronomical Twilight 5:15 AM EDT 10:10 PM EDT
Moon 8:21 AM EDT 9:28 PM EDT
Length of Visible Light 14h 41m
Length of Day
13h 47m
Tomorrow will be 1m 22s shorter.
New Moon, 2% of the Moon is Illuminated
Today
New Moon
Aug 3
First Quarter
Aug 10
Full
Aug 17
Last Quarter
Aug 25
New

Today's Extremes

State Highs State Lows

Community

WunderPhotos

Upload Photos

1,738,304 photos uploaded!

Nearby

Snow Depth

Station Depth Elevation
No new snow has been reported.

Earthquake Activity

City Distance Mag. Time & Date
No recent earthquake activity has been reported nearby.
Minimum magnitude displayed is 2.5.

Coastal Water Temperatures

Place Temperature
No Stations Reporting

Nearby Weather Stations

Station Location Temp. Heat Index Dew Point Humidity Wind Precip. Elev Updated Type
Wildwood Circle, Americus, GA 77.5 °F 79 °F 77 °F 99% North  at  0.0 mph 0.00 in / hr 402 ft 7:45 AM EDT Normal
RAWS AMERICUS/PLAINS GA, Americus, GA 78 °F 81 °F 75 °F 91% SW  at  5 mph 0.00 in / hr 456 ft 7:03 AM EDT MADIS
Cobb, Cobb, GA 78.6 °F 82 °F 77 °F 93% NW  at  6.0 mph 0.00 in / hr 285 ft 7:52 AM EDT Normal

Show More Stations Show Fewer Stations